Time;durP1;ratioP1;P1;durP2;ratioP2;P2;SDS_P1;SDS_P2;PMS_P1;PMS_P2;Temp;Humidity;BMP_temperature;BMP_pressure;BME280_temperature;BME280_humidity;BME280_pressure;Samples;Min_cycle;Max_cycle;Signal;HPM_P1;HPM_P2
2022/08/29 00:01:37;;;;;;;4.03;2.85;;;;;;;;;;5004220;28;20042;-42
2022/08/29 00:04:03;;;;;;;3.50;2.95;;;;;;;;;;4995193;28;20058;-41
2022/08/29 00:06:29;;;;;;;4.72;2.97;;;;;;;;;;5012627;28;20034;-49
2022/08/29 00:08:55;;;;;;;4.75;2.88;;;;;;;;;;4992563;28;20034;-46
2022/08/29 00:11:21;;;;;;;5.32;3.45;;;;;;;;;;4995145;28;20092;-42
2022/08/29 00:13:48;;;;;;;5.30;3.30;;;;;;;;;;4995340;28;20023;-42
2022/08/29 00:16:14;;;;;;;4.65;2.78;;;;;;;;;;4993436;28;20664;-42
2022/08/29 00:18:40;;;;;;;7.05;2.95;;;;;;;;;;5013709;28;20096;-45
2022/08/29 00:21:06;;;;;;;3.08;2.65;;;;;;;;;;5014072;28;20030;-44
2022/08/29 00:23:32;;;;;;;4.43;3.17;;;;;;;;;;5014923;28;20029;-43
2022/08/29 00:25:59;;;;;;;3.72;3.22;;;;;;;;;;5014004;28;20105;-42
2022/08/29 00:28:25;;;;;;;4.10;2.72;;;;;;;;;;5015017;28;20029;-44
2022/08/29 00:30:51;;;;;;;4.03;2.97;;;;;;;;;;5014926;28;20129;-44
2022/08/29 00:33:17;;;;;;;4.10;2.90;;;;;;;;;;5010140;28;20053;-44
2022/08/29 00:35:43;;;;;;;4.13;3.03;;;;;;;;;;4994972;28;20039;-44
2022/08/29 00:38:11;;;;;;;5.22;3.40;;;;;;;;;;4977494;28;20125;-47
2022/08/29 00:40:39;;;;;;;4.28;3.00;;;;;;;;;;4994865;28;20030;-44
2022/08/29 00:43:06;;;;;;;4.28;3.15;;;;;;;;;;4994209;28;20022;-45
2022/08/29 00:45:32;;;;;;;3.70;2.92;;;;;;;;;;4994833;28;20054;-42
2022/08/29 00:48:00;;;;;;;3.88;2.78;;;;;;;;;;4993778;28;20479;-43
2022/08/29 00:50:26;;;;;;;5.85;3.42;;;;;;;;;;5002202;28;20029;-43
2022/08/29 00:52:52;;;;;;;4.35;3.28;;;;;;;;;;5014111;28;20022;-44
2022/08/29 00:55:21;;;;;;;4.03;2.78;;;;;;;;;;5013336;28;20077;-43
2022/08/29 00:57:48;;;;;;;4.28;3.42;;;;;;;;;;5013720;28;20079;-42
2022/08/29 01:00:15;;;;;;;4.88;3.00;;;;;;;;;;5013326;28;20030;-42
2022/08/29 01:02:41;;;;;;;7.03;3.17;;;;;;;;;;5014126;28;20034;-42
2022/08/29 01:05:11;;;;;;;3.28;2.83;;;;;;;;;;5006349;28;20051;-42
2022/08/29 01:07:38;;;;;;;5.90;3.22;;;;;;;;;;4992700;28;20041;-51
2022/08/29 01:10:05;;;;;;;5.28;3.08;;;;;;;;;;4991547;28;20085;-42
2022/08/29 01:12:32;;;;;;;3.65;3.15;;;;;;;;;;4994071;28;20026;-42
2022/08/29 01:15:00;;;;;;;4.80;2.92;;;;;;;;;;4993646;28;20038;-52
2022/08/29 01:17:30;;;;;;;3.58;3.10;;;;;;;;;;4993506;28;20428;-42
2022/08/29 01:20:02;;;;;;;4.93;3.15;;;;;;;;;;4992463;28;20101;-51
2022/08/29 01:22:46;;;;;;;3.50;2.95;;;;;;;;;;4994181;28;20349;-42
2022/08/29 01:25:21;;;;;;;5.13;2.83;;;;;;;;;;4992894;28;20463;-42
2022/08/29 01:27:51;;;;;;;3.60;3.08;;;;;;;;;;4993977;28;20034;-41
2022/08/29 01:30:17;;;;;;;3.78;2.70;;;;;;;;;;4992663;28;20105;-42
2022/08/29 01:32:43;;;;;;;3.17;2.80;;;;;;;;;;4993704;28;20058;-42
2022/08/29 01:35:09;;;;;;;6.13;2.85;;;;;;;;;;4993103;28;20084;-42
2022/08/29 01:37:36;;;;;;;4.30;2.60;;;;;;;;;;4991382;28;20037;-42
2022/08/29 01:40:03;;;;;;;3.95;3.10;;;;;;;;;;4992827;28;20106;-42
2022/08/29 01:42:30;;;;;;;5.47;3.08;;;;;;;;;;4993796;28;20408;-42
2022/08/29 01:44:58;;;;;;;4.10;3.38;;;;;;;;;;4993688;28;20030;-43
2022/08/29 01:47:26;;;;;;;4.30;2.90;;;;;;;;;;4993434;28;20037;-42
2022/08/29 01:49:52;;;;;;;4.43;3.17;;;;;;;;;;4993596;28;20026;-42
2022/08/29 01:52:18;;;;;;;5.10;3.78;;;;;;;;;;4992765;28;20049;-42
2022/08/29 01:54:44;;;;;;;4.45;3.40;;;;;;;;;;4992226;28;20062;-42
2022/08/29 01:57:11;;;;;;;4.85;3.70;;;;;;;;;;4992381;28;20018;-42
2022/08/29 01:59:37;;;;;;;5.57;3.47;;;;;;;;;;4993170;28;20042;-42
2022/08/29 02:02:15;;;;;;;3.83;3.00;;;;;;;;;;4992637;28;20456;-42
2022/08/29 02:04:42;;;;;;;7.25;3.15;;;;;;;;;;4996205;28;20078;-42
2022/08/29 02:07:09;;;;;;;4.82;3.13;;;;;;;;;;5000615;28;20073;-42
2022/08/29 02:09:36;;;;;;;3.83;3.22;;;;;;;;;;4993624;28;20050;-42
2022/08/29 02:12:05;;;;;;;4.55;3.10;;;;;;;;;;5011929;28;20036;-49
2022/08/29 02:14:31;;;;;;;4.00;2.95;;;;;;;;;;5012767;28;20064;-42
2022/08/29 02:16:57;;;;;;;3.10;2.70;;;;;;;;;;5012439;28;20030;-50
2022/08/29 02:19:23;;;;;;;5.68;3.50;;;;;;;;;;5012103;28;20076;-42
2022/08/29 02:21:49;;;;;;;5.05;3.70;;;;;;;;;;5012626;28;20084;-42
2022/08/29 02:24:16;;;;;;;4.60;3.08;;;;;;;;;;5011940;28;20064;-42
2022/08/29 02:26:43;;;;;;;3.85;3.45;;;;;;;;;;5010829;28;20030;-42
2022/08/29 02:29:11;;;;;;;3.15;2.85;;;;;;;;;;5011857;28;20360;-42
2022/08/29 02:31:37;;;;;;;4.05;3.17;;;;;;;;;;5012753;28;20033;-42
2022/08/29 02:34:04;;;;;;;5.20;2.92;;;;;;;;;;5011782;28;20033;-42
2022/08/29 02:36:30;;;;;;;4.70;3.22;;;;;;;;;;5006925;28;20030;-41
2022/08/29 02:38:56;;;;;;;4.55;3.05;;;;;;;;;;4992905;28;20074;-42
2022/08/29 02:41:22;;;;;;;4.28;3.17;;;;;;;;;;4991705;28;20026;-42
2022/08/29 02:43:48;;;;;;;4.63;3.38;;;;;;;;;;4991709;28;20482;-42
2022/08/29 02:46:17;;;;;;;6.35;3.70;;;;;;;;;;4991338;28;20113;-42
2022/08/29 02:48:45;;;;;;;3.20;2.90;;;;;;;;;;4992841;28;20026;-42
2022/08/29 02:51:17;;;;;;;4.03;3.30;;;;;;;;;;4991904;28;20038;-42
2022/08/29 02:53:43;;;;;;;3.78;3.03;;;;;;;;;;4992845;28;20030;-42
2022/08/29 02:56:09;;;;;;;4.85;2.92;;;;;;;;;;4991803;28;20023;-43
2022/08/29 02:58:35;;;;;;;6.22;3.25;;;;;;;;;;4993426;28;20164;-42
2022/08/29 03:01:01;;;;;;;4.30;3.35;;;;;;;;;;5011950;28;20375;-51
2022/08/29 03:03:27;;;;;;;3.72;2.92;;;;;;;;;;5012099;28;20075;-42
2022/08/29 03:05:54;;;;;;;4.57;3.40;;;;;;;;;;5012363;28;20422;-42
2022/08/29 03:08:20;;;;;;;4.32;3.15;;;;;;;;;;4992182;28;20035;-42
2022/08/29 03:10:46;;;;;;;6.93;3.33;;;;;;;;;;4992479;28;20031;-42
2022/08/29 03:13:12;;;;;;;4.70;3.28;;;;;;;;;;4991726;28;20018;-42
2022/08/29 03:15:38;;;;;;;4.05;3.13;;;;;;;;;;4993733;28;20447;-42
2022/08/29 03:18:04;;;;;;;6.10;3.38;;;;;;;;;;5011362;28;20091;-50
2022/08/29 03:20:32;;;;;;;4.40;3.05;;;;;;;;;;5012165;28;20463;-42
2022/08/29 03:22:58;;;;;;;4.70;3.20;;;;;;;;;;5011737;28;20459;-42
2022/08/29 03:25:25;;;;;;;5.95;3.58;;;;;;;;;;5011347;28;20041;-42
2022/08/29 03:27:51;;;;;;;5.55;3.50;;;;;;;;;;5011822;28;20030;-42
2022/08/29 03:30:18;;;;;;;4.75;3.03;;;;;;;;;;5011262;28;20026;-42
2022/08/29 03:32:45;;;;;;;3.90;3.08;;;;;;;;;;5009952;28;20502;-42
2022/08/29 03:35:11;;;;;;;4.60;3.20;;;;;;;;;;5011078;28;20030;-44
2022/08/29 03:37:37;;;;;;;5.00;3.55;;;;;;;;;;4998833;28;20034;-43
2022/08/29 03:40:04;;;;;;;6.35;3.20;;;;;;;;;;4992101;28;20037;-51
2022/08/29 03:42:30;;;;;;;3.67;3.13;;;;;;;;;;4991651;28;20093;-42
2022/08/29 03:44:56;;;;;;;5.22;3.00;;;;;;;;;;4991661;28;20110;-42
2022/08/29 03:47:22;;;;;;;4.95;3.15;;;;;;;;;;4991403;28;20036;-42
2022/08/29 03:49:48;;;;;;;4.28;3.08;;;;;;;;;;5002556;28;20033;-41
2022/08/29 03:52:15;;;;;;;3.80;3.13;;;;;;;;;;5012315;28;20022;-42
2022/08/29 03:54:41;;;;;;;3.78;3.28;;;;;;;;;;5015608;28;20072;-42
2022/08/29 03:57:08;;;;;;;3.72;2.92;;;;;;;;;;4997096;28;20022;-51
2022/08/29 03:59:34;;;;;;;5.43;3.50;;;;;;;;;;5015189;28;20037;-42
2022/08/29 04:02:00;;;;;;;5.28;3.42;;;;;;;;;;5015354;28;20080;-42
2022/08/29 04:07:13;;;;;;;5.10;3.92;;;;;;;;;;5005062;28;20514;-42
2022/08/29 04:09:42;;;;;;;8.82;3.10;;;;;;;;;;4995718;28;20037;-43
2022/08/29 04:12:10;;;;;;;3.70;3.25;;;;;;;;;;4994510;28;20102;-52
2022/08/29 04:14:36;;;;;;;4.53;3.30;;;;;;;;;;4995362;28;20030;-44
2022/08/29 04:17:03;;;;;;;4.32;3.38;;;;;;;;;;4995531;28;20027;-43
2022/08/29 04:19:29;;;;;;;5.18;3.10;;;;;;;;;;4994111;28;20035;-45
2022/08/29 04:21:56;;;;;;;4.35;3.25;;;;;;;;;;4993846;28;20495;-43
2022/08/29 04:24:22;;;;;;;3.67;3.22;;;;;;;;;;5010614;28;20018;-43
2022/08/29 04:26:48;;;;;;;3.58;3.00;;;;;;;;;;5014771;28;20030;-44
2022/08/29 04:29:14;;;;;;;4.57;3.30;;;;;;;;;;5013752;28;20026;-43
2022/08/29 04:31:41;;;;;;;4.00;3.38;;;;;;;;;;5014718;28;20026;-43
2022/08/29 04:34:08;;;;;;;4.97;3.28;;;;;;;;;;5014215;28;20034;-53
2022/08/29 04:36:34;;;;;;;4.63;3.35;;;;;;;;;;5010021;28;20469;-44
2022/08/29 04:39:00;;;;;;;4.40;2.78;;;;;;;;;;4993480;28;20077;-48
2022/08/29 04:41:26;;;;;;;5.35;3.15;;;;;;;;;;5010918;28;20053;-44
2022/08/29 04:43:52;;;;;;;3.85;3.08;;;;;;;;;;5014326;28;20022;-45
2022/08/29 04:46:18;;;;;;;5.43;3.55;;;;;;;;;;4998269;28;20030;-45
2022/08/29 04:48:44;;;;;;;4.93;3.53;;;;;;;;;;4995033;28;20030;-42
2022/08/29 04:51:10;;;;;;;4.60;3.53;;;;;;;;;;4994049;28;20022;-43
2022/08/29 04:53:36;;;;;;;3.42;2.80;;;;;;;;;;4994693;28;20431;-42
2022/08/29 04:56:07;;;;;;;5.43;2.95;;;;;;;;;;4994718;28;20408;-44
2022/08/29 04:58:33;;;;;;;4.43;3.30;;;;;;;;;;5002201;28;20034;-43
2022/08/29 05:01:00;;;;;;;4.57;3.28;;;;;;;;;;5013879;28;20498;-42
2022/08/29 05:03:25;;;;;;;4.32;3.28;;;;;;;;;;5012593;28;20030;-41
2022/08/29 05:05:59;;;;;;;5.43;3.45;;;;;;;;;;5014008;28;20072;-42
2022/08/29 05:08:25;;;;;;;5.88;3.60;;;;;;;;;;4993124;28;20539;-43
2022/08/29 05:10:52;;;;;;;4.53;3.67;;;;;;;;;;4985709;28;20019;-44
2022/08/29 05:13:18;;;;;;;5.18;3.38;;;;;;;;;;4992019;28;20042;-42
2022/08/29 05:15:44;;;;;;;4.95;3.45;;;;;;;;;;4994283;28;20518;-44
2022/08/29 05:18:13;;;;;;;7.78;4.28;;;;;;;;;;4993568;28;20034;-53
2022/08/29 05:20:43;;;;;;;7.95;4.68;;;;;;;;;;4994115;28;20035;-44
2022/08/29 05:23:09;;;;;;;7.95;4.97;;;;;;;;;;4992215;28;20479;-52
2022/08/29 05:25:36;;;;;;;8.00;4.93;;;;;;;;;;4993816;28;20045;-44
2022/08/29 05:28:02;;;;;;;8.70;5.18;;;;;;;;;;4984846;28;20018;-42
2022/08/29 05:30:28;;;;;;;7.70;4.80;;;;;;;;;;4991516;28;20037;-42
2022/08/29 05:32:54;;;;;;;7.07;4.80;;;;;;;;;;4991852;28;20026;-50
2022/08/29 05:35:20;;;;;;;6.18;4.78;;;;;;;;;;4980220;28;20509;-48
2022/08/29 05:37:47;;;;;;;7.57;5.03;;;;;;;;;;4991355;28;20027;-45
2022/08/29 05:40:13;;;;;;;9.63;5.68;;;;;;;;;;4987545;28;20446;-44
2022/08/29 05:42:39;;;;;;;6.40;5.13;;;;;;;;;;4981337;28;20022;-46
2022/08/29 05:45:06;;;;;;;8.00;4.78;;;;;;;;;;4990882;28;20027;-46
2022/08/29 05:47:32;;;;;;;8.35;4.80;;;;;;;;;;5000645;28;20545;-43
2022/08/29 05:49:59;;;;;;;7.93;4.85;;;;;;;;;;5013018;28;20057;-43
2022/08/29 05:52:25;;;;;;;8.43;4.43;;;;;;;;;;5012149;28;20469;-44
2022/08/29 05:54:51;;;;;;;11.90;5.32;;;;;;;;;;5012986;28;20463;-45
2022/08/29 05:57:19;;;;;;;7.85;4.30;;;;;;;;;;5009367;28;20034;-43
2022/08/29 05:59:45;;;;;;;8.35;5.32;;;;;;;;;;4992983;28;20121;-43
2022/08/29 06:02:11;;;;;;;7.72;4.28;;;;;;;;;;4992772;28;20069;-53
2022/08/29 06:04:38;;;;;;;6.40;3.90;;;;;;;;;;4994112;28;20057;-43
2022/08/29 06:07:04;;;;;;;7.35;4.55;;;;;;;;;;4998033;28;20472;-53
2022/08/29 06:09:30;;;;;;;7.78;5.18;;;;;;;;;;4989623;28;20046;-44
2022/08/29 06:11:57;;;;;;;7.38;4.68;;;;;;;;;;4989085;28;20058;-50
2022/08/29 06:14:23;;;;;;;8.38;4.90;;;;;;;;;;4985612;28;20022;-44
2022/08/29 06:16:49;;;;;;;8.98;4.68;;;;;;;;;;4991692;28;20073;-43
2022/08/29 06:19:15;;;;;;;11.07;4.70;;;;;;;;;;5001196;28;20022;-46
2022/08/29 06:21:41;;;;;;;7.82;5.20;;;;;;;;;;4985214;28;20037;-51
2022/08/29 06:24:07;;;;;;;10.38;5.05;;;;;;;;;;4985936;28;20030;-43
2022/08/29 06:26:34;;;;;;;9.60;5.78;;;;;;;;;;4991666;28;20052;-43
2022/08/29 06:29:00;;;;;;;8.18;5.18;;;;;;;;;;5007964;28;20021;-47
2022/08/29 06:31:28;;;;;;;11.40;5.40;;;;;;;;;;4998635;28;20436;-49
2022/08/29 06:33:55;;;;;;;8.40;5.50;;;;;;;;;;4999238;28;20023;-45
2022/08/29 06:36:24;;;;;;;6.00;4.97;;;;;;;;;;4976737;28;20030;-52
2022/08/29 06:38:50;;;;;;;7.50;5.45;;;;;;;;;;4983957;28;20034;-47
2022/08/29 06:41:17;;;;;;;13.60;6.55;;;;;;;;;;4997137;28;20031;-44
2022/08/29 06:43:43;;;;;;;10.93;5.78;;;;;;;;;;5006535;28;20057;-45
2022/08/29 06:46:18;;;;;;;9.27;5.93;;;;;;;;;;5000736;28;20026;-45
2022/08/29 06:48:44;;;;;;;10.05;5.63;;;;;;;;;;4998341;28;20100;-45
2022/08/29 06:51:10;;;;;;;9.38;6.07;;;;;;;;;;5008052;28;20030;-52
2022/08/29 06:53:36;;;;;;;8.75;5.65;;;;;;;;;;4989917;28;20022;-43
2022/08/29 06:56:05;;;;;;;14.40;5.82;;;;;;;;;;4985399;28;20011;-43
2022/08/29 06:58:32;;;;;;;13.02;5.57;;;;;;;;;;4991851;28;20030;-44
2022/08/29 07:00:58;;;;;;;11.43;6.18;;;;;;;;;;5007597;28;20589;-43
2022/08/29 07:03:24;;;;;;;11.63;6.18;;;;;;;;;;4994219;28;20026;-43
2022/08/29 07:05:51;;;;;;;13.15;5.65;;;;;;;;;;5006106;28;20034;-45
2022/08/29 07:08:17;;;;;;;12.20;5.80;;;;;;;;;;4982784;28;20117;-43
2022/08/29 07:10:44;;;;;;;8.20;5.70;;;;;;;;;;5002122;28;20114;-46
2022/08/29 07:13:10;;;;;;;8.82;5.55;;;;;;;;;;4998428;28;20019;-52
2022/08/29 07:15:36;;;;;;;11.63;6.60;;;;;;;;;;5006475;28;20105;-46
2022/08/29 07:18:02;;;;;;;9.88;6.47;;;;;;;;;;5000497;28;20053;-47
2022/08/29 07:20:28;;;;;;;12.52;7.22;;;;;;;;;;4998663;28;20523;-45
2022/08/29 07:22:54;;;;;;;10.63;6.13;;;;;;;;;;4997035;28;20364;-46
2022/08/29 07:25:21;;;;;;;11.02;6.50;;;;;;;;;;5007279;28;20022;-46
2022/08/29 07:27:48;;;;;;;10.35;6.97;;;;;;;;;;5000438;28;20026;-47
2022/08/29 07:30:19;;;;;;;10.70;6.80;;;;;;;;;;5004233;28;20026;-53
2022/08/29 07:32:45;;;;;;;10.50;6.43;;;;;;;;;;4999194;28;20404;-47
2022/08/29 07:35:12;;;;;;;11.77;7.03;;;;;;;;;;5011420;28;20026;-55
2022/08/29 07:37:38;;;;;;;10.60;6.80;;;;;;;;;;5000011;28;20064;-47
2022/08/29 07:40:05;;;;;;;12.10;7.00;;;;;;;;;;5000873;28;20026;-54
2022/08/29 07:42:32;;;;;;;12.40;6.38;;;;;;;;;;5003335;28;20026;-44
2022/08/29 07:44:58;;;;;;;13.88;7.18;;;;;;;;;;4998822;28;20082;-46
2022/08/29 07:47:25;;;;;;;8.18;5.63;;;;;;;;;;5005367;28;20422;-47
2022/08/29 07:49:52;;;;;;;9.82;6.25;;;;;;;;;;5008379;28;20080;-45
2022/08/29 07:52:18;;;;;;;8.20;6.10;;;;;;;;;;5004341;28;20038;-46
2022/08/29 07:54:44;;;;;;;13.00;6.93;;;;;;;;;;5001119;28;20037;-47
2022/08/29 07:57:10;;;;;;;10.02;6.65;;;;;;;;;;5001584;28;20022;-49
2022/08/29 07:59:36;;;;;;;9.80;6.30;;;;;;;;;;5009549;28;20021;-50
2022/08/29 08:02:02;;;;;;;10.68;6.80;;;;;;;;;;5002967;28;20030;-47
2022/08/29 08:04:29;;;;;;;11.35;6.78;;;;;;;;;;5002610;28;20407;-44
2022/08/29 08:06:55;;;;;;;8.63;5.88;;;;;;;;;;4997579;28;20375;-45
2022/08/29 08:09:21;;;;;;;11.13;6.82;;;;;;;;;;4997786;28;20109;-50
2022/08/29 08:11:47;;;;;;;9.50;5.85;;;;;;;;;;4994587;28;20295;-44
2022/08/29 08:14:13;;;;;;;7.40;4.88;;;;;;;;;;4988677;28;20046;-55
2022/08/29 08:16:39;;;;;;;9.35;4.00;;;;;;;;;;4986053;28;20084;-51
2022/08/29 08:19:05;;;;;;;5.60;3.97;;;;;;;;;;4987867;28;20029;-43
2022/08/29 08:21:31;;;;;;;5.40;4.07;;;;;;;;;;5002184;28;20026;-43
2022/08/29 08:23:57;;;;;;;6.22;3.88;;;;;;;;;;5002116;28;20030;-45
2022/08/29 08:26:23;;;;;;;7.22;4.00;;;;;;;;;;4994939;28;20037;-46
2022/08/29 08:28:49;;;;;;;5.45;3.85;;;;;;;;;;4991670;28;20475;-44
2022/08/29 08:31:16;;;;;;;6.97;3.60;;;;;;;;;;4991715;28;20077;-44
2022/08/29 08:33:43;;;;;;;6.20;3.30;;;;;;;;;;4995612;28;20128;-47
2022/08/29 08:36:14;;;;;;;6.25;4.25;;;;;;;;;;5001338;28;20502;-44
2022/08/29 08:38:40;;;;;;;6.30;3.67;;;;;;;;;;4997368;28;20037;-43
2022/08/29 08:41:18;;;;;;;6.40;3.80;;;;;;;;;;5010311;28;20093;-44
2022/08/29 08:43:52;;;;;;;5.72;4.07;;;;;;;;;;5003572;28;20032;-44
2022/08/29 08:46:24;;;;;;;5.95;4.03;;;;;;;;;;4999443;28;20054;-43
2022/08/29 08:48:51;;;;;;;5.68;3.45;;;;;;;;;;4995802;28;20031;-45
2022/08/29 08:51:21;;;;;;;9.57;4.63;;;;;;;;;;5007736;28;20022;-43
2022/08/29 08:53:49;;;;;;;8.55;4.07;;;;;;;;;;5003790;28;20041;-44
2022/08/29 08:56:15;;;;;;;9.55;4.50;;;;;;;;;;5008204;28;20026;-54
2022/08/29 08:58:59;;;;;;;7.88;4.53;;;;;;;;;;4997342;28;20357;-44
2022/08/29 09:01:26;;;;;;;9.18;4.72;;;;;;;;;;5006339;28;20061;-44
2022/08/29 09:04:24;;;;;;;9.05;4.65;;;;;;;;;;5002125;28;20050;-44
2022/08/29 09:07:00;;;;;;;9.40;4.35;;;;;;;;;;4934972;28;20503;-45
2022/08/29 09:09:29;;;;;;;11.38;4.97;;;;;;;;;;5006436;28;20097;-44
2022/08/29 09:12:00;;;;;;;9.52;4.30;;;;;;;;;;4996876;28;20026;-44
2022/08/29 09:14:35;;;;;;;9.48;4.63;;;;;;;;;;5007665;28;20033;-44
2022/08/29 09:17:02;;;;;;;12.45;4.80;;;;;;;;;;4996826;28;20081;-44
2022/08/29 09:19:28;;;;;;;9.13;4.05;;;;;;;;;;5005505;28;20026;-44
2022/08/29 09:21:58;;;;;;;7.10;4.13;;;;;;;;;;4993995;28;20098;-44
2022/08/29 09:24:27;;;;;;;7.85;4.22;;;;;;;;;;5007036;28;20383;-44
2022/08/29 09:26:55;;;;;;;6.90;3.95;;;;;;;;;;5009706;28;20049;-43
2022/08/29 09:29:21;;;;;;;7.45;3.92;;;;;;;;;;4998609;28;20014;-44
2022/08/29 09:32:04;;;;;;;7.90;3.53;;;;;;;;;;5003800;28;20034;-44
2022/08/29 09:34:35;;;;;;;7.38;3.85;;;;;;;;;;5007838;28;20022;-43
2022/08/29 09:37:01;;;;;;;6.22;4.07;;;;;;;;;;4996608;28;20018;-45
2022/08/29 09:39:31;;;;;;;5.00;3.80;;;;;;;;;;5004053;28;20096;-44
2022/08/29 09:42:13;;;;;;;5.68;3.72;;;;;;;;;;5002375;28;20033;-44
2022/08/29 09:44:39;;;;;;;7.05;3.78;;;;;;;;;;5009180;28;20029;-45
2022/08/29 09:47:13;;;;;;;6.53;3.33;;;;;;;;;;4996812;28;20072;-44
2022/08/29 09:49:41;;;;;;;7.60;3.78;;;;;;;;;;5003480;28;20036;-46
2022/08/29 09:52:15;;;;;;;4.15;3.17;;;;;;;;;;5005008;28;20030;-43
2022/08/29 09:54:41;;;;;;;6.65;3.95;;;;;;;;;;5011968;28;20097;-44
2022/08/29 09:57:07;;;;;;;5.55;3.47;;;;;;;;;;4996637;28;20021;-44
2022/08/29 09:59:35;;;;;;;6.40;4.00;;;;;;;;;;5011975;28;20161;-44
2022/08/29 10:02:20;;;;;;;5.25;3.50;;;;;;;;;;5001521;28;20057;-49
2022/08/29 10:05:08;;;;;;;4.80;3.03;;;;;;;;;;5005356;28;20188;-44
2022/08/29 10:07:56;;;;;;;7.18;4.10;;;;;;;;;;5004020;28;20510;-44
2022/08/29 10:10:24;;;;;;;4.75;3.72;;;;;;;;;;5006310;28;20062;-44
2022/08/29 10:12:53;;;;;;;5.88;3.80;;;;;;;;;;5004622;28;20367;-44
2022/08/29 10:15:45;;;;;;;5.72;3.10;;;;;;;;;;5006869;28;20030;-43
2022/08/29 10:18:32;;;;;;;4.32;3.10;;;;;;;;;;5002765;28;20038;-43
2022/08/29 10:21:06;;;;;;;4.53;3.08;;;;;;;;;;4990899;28;20096;-51
2022/08/29 10:23:50;;;;;;;6.78;3.45;;;;;;;;;;4986812;28;20027;-44
2022/08/29 10:26:25;;;;;;;6.28;2.85;;;;;;;;;;5007836;28;20046;-55
2022/08/29 10:28:57;;;;;;;5.00;3.20;;;;;;;;;;4998232;28;20029;-43
2022/08/29 10:31:32;;;;;;;5.82;3.35;;;;;;;;;;5004031;28;20044;-43
2022/08/29 10:34:21;;;;;;;6.20;3.35;;;;;;;;;;4995672;28;20454;-42
2022/08/29 10:36:51;;;;;;;5.28;2.97;;;;;;;;;;4994256;28;20073;-45
2022/08/29 10:39:21;;;;;;;5.65;3.72;;;;;;;;;;5002591;28;20133;-54
2022/08/29 10:41:59;;;;;;;5.45;3.33;;;;;;;;;;4996987;28;20033;-45
2022/08/29 10:44:37;;;;;;;4.97;3.75;;;;;;;;;;4980084;28;20483;-43
2022/08/29 10:47:32;;;;;;;4.65;3.42;;;;;;;;;;5009762;28;20026;-46
2022/08/29 10:50:30;;;;;;;5.82;3.10;;;;;;;;;;4926096;28;20044;-45
2022/08/29 10:53:15;;;;;;;4.55;3.00;;;;;;;;;;4960315;28;20140;-49
2022/08/29 10:55:56;;;;;;;5.28;3.08;;;;;;;;;;5000798;28;20141;-47
2022/08/29 10:58:28;;;;;;;5.05;3.28;;;;;;;;;;4977947;28;20034;-43
2022/08/29 11:01:21;;;;;;;4.43;3.05;;;;;;;;;;4998493;28;20034;-43
2022/08/29 11:03:58;;;;;;;4.65;3.28;;;;;;;;;;4977244;28;20050;-49
2022/08/29 11:06:26;;;;;;;6.68;3.50;;;;;;;;;;5002230;28;20037;-43
2022/08/29 11:08:52;;;;;;;6.45;3.50;;;;;;;;;;4997190;28;20033;-43
2022/08/29 11:11:19;;;;;;;6.68;3.65;;;;;;;;;;5003596;28;20594;-55
2022/08/29 11:13:48;;;;;;;5.70;3.38;;;;;;;;;;5010914;28;20099;-43
2022/08/29 11:16:20;;;;;;;4.53;3.90;;;;;;;;;;4999303;28;20019;-48
2022/08/29 11:18:55;;;;;;;4.65;3.53;;;;;;;;;;5008705;28;20422;-45
2022/08/29 11:21:23;;;;;;;4.90;3.65;;;;;;;;;;5006621;28;20052;-45
2022/08/29 11:23:49;;;;;;;5.95;3.30;;;;;;;;;;4999981;28;20030;-43
2022/08/29 11:26:33;;;;;;;4.10;2.97;;;;;;;;;;5012120;28;21282;-44
2022/08/29 11:29:19;;;;;;;5.32;3.05;;;;;;;;;;5004327;28;20030;-46
2022/08/29 11:31:53;;;;;;;3.35;2.85;;;;;;;;;;5000645;28;20076;-44
2022/08/29 11:34:23;;;;;;;3.92;3.10;;;;;;;;;;5011342;28;20046;-55
2022/08/29 11:37:15;;;;;;;4.00;2.75;;;;;;;;;;5001691;28;20026;-46
2022/08/29 11:39:50;;;;;;;4.85;3.15;;;;;;;;;;5009226;28;20030;-45
2022/08/29 11:42:17;;;;;;;4.25;2.90;;;;;;;;;;4998948;28;20044;-44
2022/08/29 11:44:49;;;;;;;3.97;2.90;;;;;;;;;;5008253;28;20029;-47
2022/08/29 11:47:30;;;;;;;3.70;3.10;;;;;;;;;;4979873;28;20039;-46
2022/08/29 11:50:01;;;;;;;3.92;2.97;;;;;;;;;;4992485;28;20440;-46
2022/08/29 11:52:28;;;;;;;4.75;2.95;;;;;;;;;;5009747;28;20019;-42
2022/08/29 11:55:13;;;;;;;5.03;3.00;;;;;;;;;;5003494;28;20060;-43
2022/08/29 11:57:50;;;;;;;3.63;3.17;;;;;;;;;;5000133;28;20018;-45
2022/08/29 12:00:31;;;;;;;4.35;3.08;;;;;;;;;;5011344;28;20039;-43
2022/08/29 12:02:57;;;;;;;4.40;3.40;;;;;;;;;;4995253;28;20022;-43
2022/08/29 12:05:23;;;;;;;4.78;2.88;;;;;;;;;;5004351;28;20065;-45
2022/08/29 12:07:55;;;;;;;6.15;2.97;;;;;;;;;;4999350;28;20026;-45
2022/08/29 12:10:23;;;;;;;5.03;3.13;;;;;;;;;;4982096;28;20080;-53
2022/08/29 12:12:50;;;;;;;3.92;2.80;;;;;;;;;;5003824;28;20033;-44
2022/08/29 12:15:29;;;;;;;3.78;2.85;;;;;;;;;;5003398;28;20487;-43
2022/08/29 12:18:18;;;;;;;3.35;2.72;;;;;;;;;;5011089;28;20029;-46
2022/08/29 12:20:54;;;;;;;4.22;2.80;;;;;;;;;;4987707;28;20110;-42
2022/08/29 12:23:24;;;;;;;3.78;2.70;;;;;;;;;;5001977;28;20507;-53
2022/08/29 12:26:01;;;;;;;3.58;3.22;;;;;;;;;;5010193;28;20483;-48
2022/08/29 12:28:39;;;;;;;4.53;2.63;;;;;;;;;;4985088;28;20060;-42
2022/08/29 12:31:10;;;;;;;4.97;2.85;;;;;;;;;;5004605;28;20464;-43
2022/08/29 12:33:48;;;;;;;4.40;2.88;;;;;;;;;;5007654;28;20025;-42
2022/08/29 12:36:33;;;;;;;3.70;2.67;;;;;;;;;;4997733;28;20023;-43
2022/08/29 12:39:17;;;;;;;3.85;2.72;;;;;;;;;;5005285;28;20077;-43
2022/08/29 12:41:49;;;;;;;3.00;2.50;;;;;;;;;;4990841;28;20034;-45
2022/08/29 12:44:18;;;;;;;2.95;2.50;;;;;;;;;;5009986;28;20026;-44
2022/08/29 12:46:45;;;;;;;4.38;2.88;;;;;;;;;;5000421;28;20080;-46
2022/08/29 12:49:11;;;;;;;2.75;2.35;;;;;;;;;;5003676;28;20026;-47
2022/08/29 12:51:39;;;;;;;3.45;2.50;;;;;;;;;;5007168;28;20080;-43
2022/08/29 12:54:06;;;;;;;2.97;2.63;;;;;;;;;;4997350;28;20026;-44
2022/08/29 12:56:33;;;;;;;3.63;2.67;;;;;;;;;;5008001;28;20014;-44
2022/08/29 12:58:59;;;;;;;4.30;3.22;;;;;;;;;;5002827;28;20030;-43
2022/08/29 13:01:37;;;;;;;4.55;2.80;;;;;;;;;;5000480;28;20484;-43
2022/08/29 13:04:12;;;;;;;3.58;2.70;;;;;;;;;;5009580;28;20046;-42
2022/08/29 13:06:50;;;;;;;4.30;2.60;;;;;;;;;;5005703;28;20109;-42
2022/08/29 13:09:26;;;;;;;3.50;2.67;;;;;;;;;;5002603;28;20037;-43
2022/08/29 13:12:11;;;;;;;4.93;2.80;;;;;;;;;;5009847;28;20113;-42
2022/08/29 13:14:54;;;;;;;2.53;2.10;;;;;;;;;;4984945;28;20021;-43
2022/08/29 13:17:22;;;;;;;4.55;2.67;;;;;;;;;;5000194;28;20105;-49
2022/08/29 13:20:06;;;;;;;3.28;2.85;;;;;;;;;;4999751;28;20187;-43
2022/08/29 13:22:32;;;;;;;3.88;3.15;;;;;;;;;;4991901;28;20114;-42
2022/08/29 13:25:03;;;;;;;3.28;2.60;;;;;;;;;;5003727;28;20018;-43
2022/08/29 13:27:29;;;;;;;4.07;2.42;;;;;;;;;;4993452;28;20026;-42
2022/08/29 13:29:59;;;;;;;3.40;2.47;;;;;;;;;;5009783;28;20084;-49
2022/08/29 13:32:26;;;;;;;3.13;2.60;;;;;;;;;;4996843;28;20018;-54
2022/08/29 13:34:57;;;;;;;5.75;2.60;;;;;;;;;;5005334;28;20080;-43
2022/08/29 13:37:28;;;;;;;3.92;2.72;;;;;;;;;;5010421;28;20471;-54
2022/08/29 13:39:54;;;;;;;4.57;2.78;;;;;;;;;;4996419;28;20030;-46
2022/08/29 13:42:22;;;;;;;3.35;2.55;;;;;;;;;;4983652;28;20045;-43
2022/08/29 13:44:50;;;;;;;3.25;2.17;;;;;;;;;;5005107;28;20121;-43
2022/08/29 13:47:30;;;;;;;5.60;2.75;;;;;;;;;;5001978;28;20027;-43
2022/08/29 13:49:57;;;;;;;2.58;2.35;;;;;;;;;;5009539;28;20092;-45
2022/08/29 13:52:23;;;;;;;2.50;2.30;;;;;;;;;;4996797;28;20053;-54
2022/08/29 13:54:49;;;;;;;3.42;2.38;;;;;;;;;;4990145;28;20069;-43
2022/08/29 13:57:19;;;;;;;3.45;2.53;;;;;;;;;;4993609;28;20468;-42
2022/08/29 13:59:46;;;;;;;4.68;2.92;;;;;;;;;;4992780;28;20026;-43
2022/08/29 14:02:13;;;;;;;3.63;2.70;;;;;;;;;;4993153;28;20027;-42
2022/08/29 14:04:39;;;;;;;3.10;2.38;;;;;;;;;;4992177;28;20419;-42
2022/08/29 14:07:05;;;;;;;3.63;2.47;;;;;;;;;;5005064;28;20058;-43
2022/08/29 14:09:33;;;;;;;4.40;2.60;;;;;;;;;;4997552;28;20392;-43
2022/08/29 14:11:59;;;;;;;3.90;2.53;;;;;;;;;;5008675;28;20037;-43
2022/08/29 14:14:26;;;;;;;4.13;2.70;;;;;;;;;;4997393;28;20022;-53
2022/08/29 14:16:52;;;;;;;3.28;2.50;;;;;;;;;;5003632;28;20029;-43
2022/08/29 14:19:21;;;;;;;3.40;2.30;;;;;;;;;;5004776;28;20160;-44
2022/08/29 14:21:47;;;;;;;5.07;3.35;;;;;;;;;;4995425;28;20045;-43
2022/08/29 14:24:13;;;;;;;3.67;2.90;;;;;;;;;;5008987;28;20463;-45
2022/08/29 14:26:39;;;;;;;4.65;2.65;;;;;;;;;;4998534;28;20017;-43
2022/08/29 14:29:05;;;;;;;3.42;2.67;;;;;;;;;;5002944;28;20061;-43
2022/08/29 14:31:31;;;;;;;3.47;2.63;;;;;;;;;;4997308;28;20077;-43
2022/08/29 14:33:58;;;;;;;2.95;2.50;;;;;;;;;;5008854;28;20026;-44
2022/08/29 14:36:24;;;;;;;4.68;2.42;;;;;;;;;;4996417;28;20381;-54
2022/08/29 14:38:50;;;;;;;3.47;2.60;;;;;;;;;;5003522;28;20030;-43
2022/08/29 14:41:16;;;;;;;3.92;2.70;;;;;;;;;;5004008;28;20061;-43
2022/08/29 14:43:42;;;;;;;3.38;2.50;;;;;;;;;;4995753;28;20052;-44
2022/08/29 14:46:08;;;;;;;4.82;3.10;;;;;;;;;;5010992;28;20030;-42
2022/08/29 14:48:34;;;;;;;2.65;2.30;;;;;;;;;;5005095;28;20019;-43
2022/08/29 14:51:00;;;;;;;2.95;2.17;;;;;;;;;;5002026;28;20097;-44
2022/08/29 14:53:26;;;;;;;3.95;2.85;;;;;;;;;;5004541;28;20071;-54
2022/08/29 14:55:52;;;;;;;3.13;2.30;;;;;;;;;;4995751;28;20014;-43